createdAt,value
2018-07-02T00:00:43.124Z,61.59
2018-07-02T00:03:11.942Z,61.41
2018-07-02T00:05:51.102Z,60.32
2018-07-02T00:08:19.202Z,60.17
2018-07-02T00:10:47.212Z,60.08
2018-07-02T00:13:15.250Z,58.21
2018-07-02T00:15:43.227Z,58.71
2018-07-02T00:18:11.369Z,59.93
2018-07-02T00:20:39.556Z,60.20
2018-07-02T00:23:07.666Z,61.28
2018-07-02T00:25:35.626Z,61.02
2018-07-02T00:28:03.775Z,61.70
2018-07-02T00:30:31.786Z,61.86
2018-07-02T00:32:59.835Z,62.15
2018-07-02T00:35:27.962Z,62.70
2018-07-02T00:37:55.915Z,64.06
2018-07-02T00:40:24.000Z,65.51
2018-07-02T00:42:52.017Z,64.26
2018-07-02T00:45:20.051Z,62.85
2018-07-02T00:47:48.080Z,62.31
2018-07-02T00:50:16.074Z,63.32
2018-07-02T00:52:44.126Z,65.03
2018-07-02T00:55:12.118Z,64.46
2018-07-02T00:57:40.114Z,63.73
2018-07-02T01:00:15.667Z,62.59
2018-07-02T01:02:44.042Z,62.83
2018-07-02T01:05:12.846Z,62.84
2018-07-02T01:07:41.529Z,63.38
2018-07-02T01:10:09.975Z,63.17
2018-07-02T01:12:37.978Z,63.12
2018-07-02T01:15:06.866Z,64.00
2018-07-02T01:17:35.933Z,63.86
2018-07-02T01:20:04.058Z,63.41
2018-07-02T01:22:32.089Z,63.58
2018-07-02T01:25:00.238Z,63.71
2018-07-02T01:27:32.658Z,63.94
2018-07-02T01:30:00.744Z,64.80
2018-07-02T01:32:28.773Z,65.20
2018-07-02T01:34:56.787Z,64.72
2018-07-02T01:37:24.894Z,63.78
2018-07-02T01:39:52.905Z,63.78
2018-07-02T01:42:21.042Z,63.43
2018-07-02T01:44:48.991Z,62.32
2018-07-02T01:47:17.003Z,61.37
2018-07-02T01:49:45.051Z,59.83
2018-07-02T01:52:13.093Z,58.67
2018-07-02T01:54:41.108Z,58.49
2018-07-02T01:57:09.234Z,60.27
2018-07-02T01:59:37.242Z,60.07
2018-07-02T02:02:05.349Z,60.84
2018-07-02T02:04:33.786Z,61.04
2018-07-02T02:07:02.493Z,61.15
2018-07-02T02:09:30.462Z,59.38
2018-07-02T02:11:58.463Z,59.18
2018-07-02T02:14:26.495Z,57.51
2018-07-02T02:16:54.505Z,57.41
2018-07-02T02:19:22.607Z,55.63
2018-07-02T02:21:50.595Z,55.76
2018-07-02T02:24:18.711Z,54.88
2018-07-02T02:26:46.764Z,54.11
2018-07-02T02:29:14.858Z,53.19
2018-07-02T02:31:42.916Z,52.59
2018-07-02T02:34:11.028Z,51.52
2018-07-02T02:36:39.093Z,52.07
2018-07-02T02:39:08.269Z,52.26
2018-07-02T02:41:36.401Z,52.59
2018-07-02T02:44:04.846Z,51.03
2018-07-02T02:46:32.922Z,51.57
2018-07-02T02:49:00.955Z,50.80
2018-07-02T02:51:29.313Z,51.07
2018-07-02T02:53:57.411Z,50.94
2018-07-02T02:56:25.470Z,51.09
2018-07-02T02:58:53.618Z,53.55
2018-07-02T03:01:21.661Z,57.01
2018-07-02T03:03:49.735Z,58.44
2018-07-02T03:06:17.708Z,58.24
2018-07-02T03:08:46.320Z,60.87
2018-07-02T03:11:14.314Z,60.17
2018-07-02T03:13:42.374Z,59.73
2018-07-02T03:16:10.522Z,59.01
2018-07-02T03:18:38.617Z,60.01
2018-07-02T03:21:06.726Z,60.92
2018-07-02T03:23:34.802Z,61.73
2018-07-02T03:26:02.823Z,61.86
2018-07-02T03:28:30.845Z,60.81
2018-07-02T03:30:58.886Z,60.23
2018-07-02T03:33:26.884Z,59.51
2018-07-02T03:35:55.027Z,59.33
2018-07-02T03:38:23.114Z,60.11
2018-07-02T03:40:51.107Z,59.83
2018-07-02T03:43:19.089Z,59.80
2018-07-02T03:45:47.201Z,60.08
2018-07-02T03:48:15.218Z,60.99
2018-07-02T03:50:43.218Z,60.69
2018-07-02T03:53:11.491Z,60.94
2018-07-02T03:55:39.625Z,61.16
2018-07-02T03:58:07.620Z,59.77
2018-07-02T04:00:35.655Z,59.21
2018-07-02T04:03:03.665Z,60.22
2018-07-02T04:05:31.769Z,59.49
2018-07-02T04:07:59.988Z,58.76
2018-07-02T04:10:28.061Z,58.68
2018-07-02T04:12:56.662Z,58.93
2018-07-02T04:15:24.687Z,58.31
2018-07-02T04:17:52.745Z,58.08
2018-07-02T04:20:20.789Z,58.61
2018-07-02T04:22:48.796Z,58.57
2018-07-02T04:25:16.938Z,58.82
2018-07-02T04:27:45.124Z,59.29
2018-07-02T04:30:13.169Z,58.98
2018-07-02T04:32:41.298Z,58.63
2018-07-02T04:35:09.371Z,59.00
2018-07-02T04:37:37.592Z,59.59
2018-07-02T04:40:05.714Z,59.72
2018-07-02T04:42:33.929Z,60.00
2018-07-02T04:45:02.482Z,59.31
2018-07-02T04:47:30.422Z,59.51
2018-07-02T04:49:58.503Z,57.72
2018-07-02T04:52:26.590Z,58.03
2018-07-02T04:54:54.749Z,58.02
2018-07-02T04:57:22.801Z,58.58
2018-07-02T04:59:50.921Z,59.11
2018-07-02T05:02:19.104Z,58.32
2018-07-02T05:04:47.137Z,57.81
2018-07-02T05:07:15.175Z,57.99
2018-07-02T05:09:43.484Z,57.70
2018-07-02T05:12:11.675Z,56.92
2018-07-02T05:14:40.534Z,57.30
2018-07-02T05:17:08.628Z,55.02
2018-07-02T05:19:36.694Z,55.31
2018-07-02T05:22:05.608Z,55.85
2018-07-02T05:24:33.694Z,54.15
2018-07-02T05:27:02.749Z,54.67
2018-07-02T05:29:31.955Z,55.33
2018-07-02T05:32:00.350Z,53.67
2018-07-02T05:34:28.460Z,53.43
2018-07-02T05:36:56.582Z,53.27
2018-07-02T05:39:24.984Z,53.14
2018-07-02T05:41:53.050Z,52.36
2018-07-02T05:44:20.987Z,51.72
2018-07-02T05:46:49.338Z,52.45
2018-07-02T05:49:17.813Z,52.23
2018-07-02T05:57:32.791Z,51.31
2018-07-02T06:00:01.127Z,51.31
2018-07-02T06:02:29.140Z,51.66
2018-07-02T06:04:57.148Z,51.26
2018-07-02T06:07:25.228Z,50.61
2018-07-02T06:09:53.263Z,51.25
2018-07-02T06:12:21.414Z,51.22
2018-07-02T06:14:50.212Z,50.68
2018-07-02T06:17:18.012Z,50.22
2018-07-02T06:19:46.259Z,50.08
2018-07-02T06:22:14.288Z,51.10
2018-07-02T06:24:42.242Z,48.55
2018-07-02T06:27:10.302Z,49.06
2018-07-02T06:29:38.347Z,48.87
2018-07-02T06:32:06.964Z,49.49
2018-07-02T06:34:35.169Z,49.69
2018-07-02T06:37:03.253Z,49.58
2018-07-02T06:39:31.254Z,49.25
2018-07-02T06:41:59.827Z,48.93
2018-07-02T06:44:28.024Z,48.56
2018-07-02T06:46:56.406Z,48.47
2018-07-02T06:49:24.515Z,48.95
2018-07-02T06:51:52.787Z,47.79
2018-07-02T06:54:22.232Z,48.29
2018-07-02T06:56:51.005Z,47.65
2018-07-02T06:59:19.735Z,48.04
2018-07-02T07:01:50.201Z,48.77
2018-07-02T07:04:18.231Z,47.60
2018-07-02T07:06:46.504Z,48.10
2018-07-02T07:09:14.575Z,49.36
2018-07-02T07:11:42.692Z,48.39
2018-07-02T07:14:10.837Z,48.85
2018-07-02T07:16:39.028Z,48.92
2018-07-02T07:19:07.060Z,48.25
2018-07-02T07:21:35.392Z,49.70
2018-07-02T07:24:03.416Z,48.82
2018-07-02T07:26:31.580Z,49.20
2018-07-02T07:28:59.835Z,49.38
2018-07-02T07:31:28.085Z,49.55
2018-07-02T07:33:56.115Z,50.03
2018-07-02T07:36:24.361Z,50.86
2018-07-02T07:38:52.443Z,50.09
2018-07-02T07:41:20.580Z,49.49
2018-07-02T07:43:49.025Z,50.70
2018-07-02T07:46:17.109Z,51.47
2018-07-02T07:48:45.363Z,50.25
2018-07-02T07:51:13.564Z,49.36
2018-07-02T07:53:41.627Z,48.64
2018-07-02T07:56:09.719Z,49.19
2018-07-02T07:58:37.934Z,49.58
2018-07-02T08:01:05.992Z,48.52
2018-07-02T08:03:34.438Z,48.96
2018-07-02T08:06:02.854Z,48.71
2018-07-02T08:08:31.035Z,49.44
2018-07-02T08:10:59.226Z,48.12
2018-07-02T08:13:27.475Z,49.10
2018-07-02T08:15:55.821Z,49.36
2018-07-02T08:18:23.868Z,48.94
2018-07-02T08:20:51.907Z,48.45
2018-07-02T08:23:20.062Z,48.21
2018-07-02T08:25:48.170Z,47.75
2018-07-02T08:28:16.252Z,48.22
2018-07-02T08:30:44.287Z,47.01
2018-07-02T08:33:12.370Z,46.97
2018-07-02T08:35:40.305Z,46.22
2018-07-02T08:38:08.431Z,46.39
2018-07-02T08:40:36.523Z,45.95
2018-07-02T08:43:04.543Z,46.87
2018-07-02T08:45:32.692Z,45.33
2018-07-02T08:48:00.678Z,46.81
2018-07-02T08:50:28.615Z,47.71
2018-07-02T08:52:56.767Z,45.88
2018-07-02T08:55:24.722Z,45.94
2018-07-02T08:57:52.696Z,46.15
2018-07-02T09:00:21.005Z,46.26
2018-07-02T09:02:48.989Z,45.16
2018-07-02T09:05:17.022Z,46.21
2018-07-02T09:07:45.006Z,46.51
2018-07-02T09:10:13.099Z,46.64
2018-07-02T09:12:41.087Z,43.84
2018-07-02T09:15:09.015Z,45.76
2018-07-02T09:17:37.222Z,45.84
2018-07-02T09:20:05.180Z,45.27
2018-07-02T09:22:33.274Z,45.59
2018-07-02T09:25:01.672Z,43.88
2018-07-02T09:27:29.681Z,43.62
2018-07-02T09:29:57.803Z,42.14
2018-07-02T09:32:25.891Z,42.26
2018-07-02T09:34:53.923Z,43.52
2018-07-02T09:37:21.987Z,42.22
2018-07-02T09:39:49.975Z,40.79
2018-07-02T09:42:18.642Z,43.20
2018-07-02T09:44:46.772Z,43.09
2018-07-02T09:47:14.782Z,43.87
2018-07-02T09:49:42.820Z,43.40
2018-07-02T09:52:10.913Z,41.31
2018-07-02T09:54:39.085Z,41.88
2018-07-02T09:57:07.087Z,42.60
2018-07-02T09:59:35.157Z,42.27
2018-07-02T10:02:03.289Z,45.27
2018-07-02T10:04:31.531Z,44.76
2018-07-02T10:06:59.581Z,43.87
2018-07-02T10:09:27.571Z,43.83
2018-07-02T10:11:55.653Z,44.46
2018-07-02T10:14:23.791Z,45.76
2018-07-02T10:16:51.864Z,46.64
2018-07-02T10:19:20.760Z,45.86
2018-07-02T10:21:48.774Z,45.95
2018-07-02T10:24:16.847Z,44.94
2018-07-02T10:26:44.773Z,45.23
2018-07-02T10:29:12.852Z,45.33
2018-07-02T10:31:41.094Z,43.50
2018-07-02T10:34:09.066Z,43.65
2018-07-02T10:36:37.164Z,44.82
2018-07-02T10:39:07.546Z,43.51
2018-07-02T10:41:35.866Z,44.36
2018-07-02T10:44:04.045Z,44.45
2018-07-02T10:46:32.110Z,44.46
2018-07-02T10:49:00.173Z,43.15
2018-07-02T10:51:28.326Z,44.96
2018-07-02T10:53:56.405Z,43.03
2018-07-02T10:56:24.806Z,42.88
2018-07-02T10:58:52.799Z,44.07
2018-07-02T11:01:20.874Z,43.89
2018-07-02T11:03:48.894Z,43.87
2018-07-02T11:06:16.950Z,43.49
2018-07-02T11:08:46.079Z,43.60
2018-07-02T11:11:14.280Z,43.37
2018-07-02T11:13:42.258Z,43.48
2018-07-02T11:16:10.340Z,43.05
2018-07-02T11:18:38.397Z,43.59
2018-07-02T11:21:06.384Z,41.97
2018-07-02T11:23:34.452Z,42.93
2018-07-02T11:26:02.501Z,44.36
2018-07-02T11:28:30.579Z,44.02
2018-07-02T11:30:58.602Z,43.41
2018-07-02T11:33:26.701Z,43.46
2018-07-02T11:35:54.830Z,43.59
2018-07-02T11:38:22.965Z,42.08
2018-07-02T11:40:50.986Z,43.04
2018-07-02T11:43:19.175Z,42.99
2018-07-02T11:45:47.279Z,41.20
2018-07-02T11:48:15.290Z,41.38
2018-07-02T11:50:43.484Z,42.07
2018-07-02T11:53:11.595Z,42.57
2018-07-02T11:55:39.563Z,42.06
2018-07-02T11:58:08.349Z,41.46
2018-07-02T12:00:36.466Z,41.64
2018-07-02T12:03:04.560Z,42.02
2018-07-02T12:05:32.599Z,42.57
2018-07-02T12:08:00.871Z,43.92
2018-07-02T12:10:28.908Z,43.38
2018-07-02T12:12:56.949Z,42.61
2018-07-02T12:15:25.116Z,42.53
2018-07-02T12:17:53.129Z,40.38
2018-07-02T12:20:21.178Z,41.10
2018-07-02T12:22:49.500Z,40.87
2018-07-02T12:25:17.518Z,43.54
2018-07-02T12:27:45.609Z,43.20
2018-07-02T12:30:13.642Z,41.23
2018-07-02T12:32:41.580Z,40.98
2018-07-02T12:35:10.179Z,42.03
2018-07-02T12:37:38.193Z,40.34
2018-07-02T12:40:06.239Z,40.44
2018-07-02T12:42:34.372Z,40.67
2018-07-02T12:45:02.501Z,39.61
2018-07-02T12:47:30.540Z,40.30
2018-07-02T12:49:58.460Z,39.58
2018-07-02T12:52:26.454Z,41.77
2018-07-02T12:54:54.447Z,41.50
2018-07-02T12:57:22.702Z,41.42
2018-07-02T12:59:50.974Z,39.93
2018-07-02T13:02:19.034Z,39.02
2018-07-02T13:04:47.105Z,38.94
2018-07-02T13:07:15.090Z,39.71
2018-07-02T13:09:43.149Z,40.19
2018-07-02T13:12:11.152Z,41.12
2018-07-02T13:14:39.377Z,41.20
2018-07-02T13:17:07.406Z,42.10
2018-07-02T13:19:35.483Z,40.52
2018-07-02T13:22:03.602Z,40.18
2018-07-02T13:24:31.628Z,38.69
2018-07-02T13:26:59.962Z,38.18
2018-07-02T13:29:27.874Z,37.35
2018-07-02T13:31:56.116Z,35.08
2018-07-02T13:34:24.259Z,33.95
2018-07-02T13:36:52.325Z,33.22
2018-07-02T13:39:20.469Z,32.70
2018-07-02T13:41:48.562Z,31.49
2018-07-02T13:44:16.791Z,32.70
2018-07-02T13:46:44.872Z,31.43
2018-07-02T13:49:12.925Z,31.63
2018-07-02T13:51:41.338Z,32.45
2018-07-02T13:54:09.668Z,32.48
2018-07-02T13:56:38.398Z,32.82
2018-07-02T13:59:10.166Z,33.36
2018-07-02T14:01:39.749Z,32.35
2018-07-02T14:04:08.974Z,32.96
2018-07-02T14:06:37.095Z,32.74
2018-07-02T14:09:08.561Z,33.24
2018-07-02T14:11:37.003Z,31.41
2018-07-02T14:14:05.019Z,30.29
2018-07-02T14:16:33.568Z,29.96
2018-07-02T14:19:01.714Z,31.42
2018-07-02T14:21:29.733Z,34.17
2018-07-02T14:23:57.910Z,34.99
2018-07-02T14:26:26.175Z,35.48
2018-07-02T14:28:54.139Z,35.77
2018-07-02T14:31:22.098Z,36.63
2018-07-02T14:33:50.109Z,38.89
2018-07-02T14:36:19.182Z,37.77
2018-07-02T14:38:47.576Z,37.51
2018-07-02T14:41:15.707Z,37.58
2018-07-02T14:43:43.770Z,37.66
2018-07-02T14:46:11.976Z,37.50
2018-07-02T14:48:39.998Z,36.51
2018-07-02T14:51:08.032Z,34.02
2018-07-02T14:53:36.226Z,33.95
2018-07-02T14:56:04.280Z,34.54
2018-07-02T14:58:33.433Z,33.01
2018-07-02T15:01:08.603Z,32.92
2018-07-02T15:03:36.876Z,33.96
2018-07-02T15:06:04.961Z,35.28
2018-07-02T15:08:32.978Z,35.86
2018-07-02T15:11:01.033Z,36.99
2018-07-02T15:13:29.039Z,37.97
2018-07-02T15:15:57.002Z,38.25
2018-07-02T15:18:25.124Z,39.87
2018-07-02T15:20:53.166Z,39.06
2018-07-02T15:23:21.486Z,39.17
2018-07-02T15:25:50.076Z,38.51
2018-07-02T15:28:18.028Z,37.22
2018-07-02T15:30:46.170Z,36.75
2018-07-02T15:33:14.606Z,36.16
2018-07-02T15:35:42.682Z,35.12
2018-07-02T15:38:10.658Z,36.28
2018-07-02T15:40:38.736Z,36.96
2018-07-02T15:43:06.802Z,36.97
2018-07-02T15:45:36.047Z,36.55
2018-07-02T15:48:04.124Z,38.84
2018-07-02T15:50:32.426Z,39.61
2018-07-02T15:53:00.635Z,38.03
2018-07-02T15:55:28.675Z,39.76
2018-07-02T15:57:56.953Z,40.23
2018-07-02T16:00:25.955Z,41.33
2018-07-02T16:02:54.611Z,39.10
2018-07-02T16:05:22.678Z,38.54
2018-07-02T16:07:51.361Z,37.09
2018-07-02T16:10:19.367Z,37.62
2018-07-02T16:12:47.920Z,38.24
2018-07-02T16:15:15.973Z,37.94
2018-07-02T16:17:44.311Z,38.91
2018-07-02T16:20:12.453Z,42.78
2018-07-02T16:22:40.703Z,44.46
2018-07-02T16:25:08.885Z,46.25
2018-07-02T16:27:36.852Z,48.25
2018-07-02T16:30:06.547Z,50.60
2018-07-02T16:32:34.587Z,52.80
2018-07-02T16:35:02.813Z,52.97
2018-07-02T16:37:31.226Z,53.93
2018-07-02T16:39:59.250Z,55.27
2018-07-02T16:42:27.347Z,55.09
2018-07-02T16:44:55.420Z,56.54
2018-07-02T16:47:23.476Z,56.69
2018-07-02T16:49:51.569Z,55.83
2018-07-02T16:52:20.427Z,57.61
2018-07-02T16:54:48.498Z,58.12
2018-07-02T16:57:18.363Z,59.78
2018-07-02T16:59:48.163Z,60.37
2018-07-02T17:02:16.539Z,62.06
2018-07-02T17:04:44.635Z,62.97
2018-07-02T17:07:13.322Z,63.98
2018-07-02T17:09:42.586Z,63.97
2018-07-02T17:12:11.641Z,63.80
2018-07-02T17:14:39.752Z,64.35
2018-07-02T17:17:07.986Z,64.63
2018-07-02T17:19:36.069Z,64.62
2018-07-02T17:22:04.842Z,65.12
2018-07-02T17:24:33.095Z,65.12
2018-07-02T17:27:01.128Z,65.52
2018-07-02T17:29:29.084Z,64.93
2018-07-02T17:31:57.129Z,65.66
2018-07-02T17:34:25.287Z,64.75
2018-07-02T17:36:53.357Z,64.45
2018-07-02T17:39:21.458Z,64.53
2018-07-02T17:41:49.554Z,65.03
2018-07-02T17:44:17.520Z,65.42
2018-07-02T17:46:46.583Z,64.74
2018-07-02T17:49:14.603Z,64.98
2018-07-02T17:51:42.858Z,65.14
2018-07-02T17:54:11.711Z,65.40
2018-07-02T17:56:39.988Z,65.53
2018-07-02T17:59:08.696Z,66.03
2018-07-02T18:01:36.780Z,65.64
2018-07-02T18:04:04.893Z,65.71
2018-07-02T18:06:32.859Z,64.88
2018-07-02T18:09:01.025Z,66.14
2018-07-02T18:11:29.289Z,66.40
2018-07-02T18:13:57.229Z,66.65
2018-07-02T18:16:25.293Z,65.61
2018-07-02T18:18:54.916Z,67.05
2018-07-02T18:21:22.919Z,66.74
2018-07-02T18:23:50.946Z,66.35
2018-07-02T18:26:19.268Z,67.78
2018-07-02T18:28:47.417Z,68.24
2018-07-02T18:31:15.555Z,68.77
2018-07-02T18:33:43.755Z,68.19
2018-07-02T18:36:11.832Z,69.17
2018-07-02T18:38:42.411Z,69.26
2018-07-02T18:41:12.581Z,69.71
2018-07-02T18:43:42.361Z,69.65
2018-07-02T18:46:10.451Z,70.33
2018-07-02T18:48:38.583Z,70.33
2018-07-02T18:51:06.850Z,71.02
2018-07-02T18:53:34.881Z,71.22
2018-07-02T18:56:02.864Z,70.38
2018-07-02T18:58:31.487Z,71.64
2018-07-02T19:00:59.712Z,71.30
2018-07-02T19:03:27.746Z,70.97
2018-07-02T19:05:55.839Z,71.38
2018-07-02T19:08:24.391Z,70.50
2018-07-02T19:10:52.804Z,70.01
2018-07-02T19:13:20.999Z,71.04
2018-07-02T19:15:49.070Z,71.32
2018-07-02T19:18:17.162Z,71.77
2018-07-02T19:20:45.500Z,71.58
2018-07-02T19:23:13.602Z,71.79
2018-07-02T19:25:41.591Z,72.47
2018-07-02T19:28:09.754Z,73.29
2018-07-02T19:30:38.120Z,73.30
2018-07-02T19:33:06.229Z,74.06
2018-07-02T19:35:34.240Z,73.48
2018-07-02T19:38:02.309Z,73.79
2018-07-02T19:40:30.357Z,73.24
2018-07-02T19:42:58.523Z,73.33
2018-07-02T19:45:26.566Z,73.14
2018-07-02T19:47:54.628Z,72.80
2018-07-02T19:50:22.614Z,73.00
2018-07-02T19:52:50.551Z,73.95
2018-07-02T19:55:18.619Z,73.20
2018-07-02T19:57:46.818Z,72.71
2018-07-02T20:00:14.907Z,73.34
2018-07-02T20:02:43.052Z,73.83
2018-07-02T20:05:11.141Z,73.41
2018-07-02T20:07:39.993Z,72.85
2018-07-02T20:10:08.121Z,72.90
2018-07-02T20:12:36.838Z,72.83
2018-07-02T20:15:05.267Z,73.14
2018-07-02T20:17:33.279Z,72.79
2018-07-02T20:20:01.405Z,72.55
2018-07-02T20:22:29.467Z,73.38
2018-07-02T20:24:57.789Z,72.94
2018-07-02T20:27:25.711Z,73.55
2018-07-02T20:29:53.781Z,73.32
2018-07-02T20:32:21.888Z,73.68
2018-07-02T20:34:49.933Z,74.58
2018-07-02T20:37:17.867Z,74.13
2018-07-02T20:39:45.919Z,74.34
2018-07-02T20:42:13.943Z,73.97
2018-07-02T20:44:42.038Z,74.81
2018-07-02T20:47:10.039Z,74.85
2018-07-02T20:49:37.953Z,74.33
2018-07-02T20:52:05.966Z,74.23
2018-07-02T20:54:34.116Z,74.99
2018-07-02T20:57:02.276Z,75.39
2018-07-02T20:59:30.347Z,74.53
2018-07-02T21:01:58.312Z,76.21
2018-07-02T21:04:26.391Z,75.30
2018-07-02T21:06:54.502Z,76.12
2018-07-02T21:09:22.710Z,75.94
2018-07-02T21:11:50.700Z,76.26
2018-07-02T21:14:18.612Z,75.99
2018-07-02T21:16:46.780Z,76.21
2018-07-02T21:19:14.799Z,76.25
2018-07-02T21:21:42.830Z,76.60
2018-07-02T21:24:11.678Z,76.40
2018-07-02T21:26:40.081Z,76.58
2018-07-02T21:29:08.039Z,76.93
2018-07-02T21:31:36.063Z,77.23
2018-07-02T21:34:04.165Z,77.87
2018-07-02T21:36:32.242Z,77.03
2018-07-02T21:39:00.276Z,77.37
2018-07-02T21:41:28.308Z,77.64
2018-07-02T21:43:56.609Z,77.73
2018-07-02T21:46:24.558Z,77.99
2018-07-02T21:48:52.590Z,78.21
2018-07-02T21:51:20.712Z,78.77
2018-07-02T21:53:48.779Z,78.23
2018-07-02T21:56:16.790Z,78.13
2018-07-02T21:58:48.046Z,78.41
2018-07-02T22:01:20.160Z,78.83
2018-07-02T22:03:48.445Z,78.32
2018-07-02T22:06:16.893Z,77.95
2018-07-02T22:08:45.095Z,78.52
2018-07-02T22:11:13.112Z,78.46
2018-07-02T22:13:41.132Z,78.76
2018-07-02T22:16:09.219Z,78.58
2018-07-02T22:18:37.304Z,79.22
2018-07-02T22:21:05.245Z,78.68
2018-07-02T22:23:33.611Z,78.43
2018-07-02T22:26:01.630Z,78.00
2018-07-02T22:28:29.756Z,78.50
2018-07-02T22:30:57.751Z,78.21
2018-07-02T22:33:25.969Z,78.46
2018-07-02T22:35:54.094Z,79.53
2018-07-02T22:38:22.190Z,79.60
2018-07-02T22:40:50.314Z,80.15
2018-07-02T22:43:18.309Z,79.66
2018-07-02T22:45:46.247Z,79.60
2018-07-02T22:48:15.322Z,79.43
2018-07-02T22:50:43.354Z,79.82
2018-07-02T22:53:11.397Z,79.73
2018-07-02T22:55:50.951Z,80.12
2018-07-02T22:58:21.178Z,80.60
2018-07-02T23:00:49.130Z,81.31
2018-07-02T23:03:17.226Z,80.87
2018-07-02T23:05:45.294Z,81.02
2018-07-02T23:08:14.068Z,81.05
2018-07-02T23:10:42.036Z,81.31
2018-07-02T23:13:10.007Z,81.00
2018-07-02T23:15:38.460Z,80.94
2018-07-02T23:18:12.011Z,80.89
2018-07-02T23:20:40.429Z,80.64
2018-07-02T23:23:08.438Z,81.78
2018-07-02T23:25:36.353Z,81.37
2018-07-02T23:28:04.376Z,81.50
2018-07-02T23:30:33.130Z,81.52
2018-07-02T23:33:01.165Z,81.46
2018-07-02T23:35:29.198Z,81.62
2018-07-02T23:37:57.338Z,81.40
2018-07-02T23:40:25.938Z,82.08
2018-07-02T23:42:54.799Z,81.54
2018-07-02T23:45:23.691Z,81.91
2018-07-02T23:47:51.784Z,82.64
2018-07-02T23:50:19.931Z,82.74
2018-07-02T23:52:47.955Z,81.99
2018-07-02T23:55:15.971Z,82.13
2018-07-02T23:57:44.063Z,82.69
